Terminal Aerodrome Forecast
Issued by NWS

Home | Current Version | Previous Version | Text Only | Print | Product List | Glossary On
Versions: 1 2 3 4 5 6 7 8 9 10 11 12 13 14 15 16 17 18 19
000
FTUS46 KSEW 182320
TAFBFI
TAF
KBFI 182320Z 1900/1924 34020G30KT P6SM FEW030
     FM190300 36015G25KT P6SM SKC
     FM190700 04012G20KT P6SM SKC
     FM191200 04006KT P6SM SKC=

USA.gov is the U.S. government's official web portal to all federal, state and local government web resources and services.